Time;durP1;ratioP1;P1;durP2;ratioP2;P2;SDS_P1;SDS_P2;PMS_P1;PMS_P2;Temp;Humidity;BMP_temperature;BMP_pressure;BME280_temperature;BME280_humidity;BME280_pressure;Samples;Min_cycle;Max_cycle;Signal;HPM_P1;HPM_P2
2021/10/06 00:01:17;;;;;;;17.13;7.97;;;11.70;99.90;;;10.26;100.00;101240.09;5013964;28;20070;-79
2021/10/06 00:03:43;;;;;;;20.10;8.98;;;11.70;99.90;;;10.31;100.00;101236.47;5012659;28;20384;-79
2021/10/06 00:06:09;;;;;;;13.65;7.30;;;11.70;99.90;;;10.30;100.00;101234.75;5029644;28;20028;-79
2021/10/06 00:08:35;;;;;;;15.73;7.28;;;11.70;99.90;;;10.36;100.00;101245.91;5022919;28;20063;-79
2021/10/06 00:11:02;;;;;;;20.00;7.63;;;;;;;10.34;100.00;101229.31;4999572;28;20422;-79
2021/10/06 00:13:28;;;;;;;20.35;8.70;;;11.80;99.90;;;10.36;100.00;101237.16;5020375;28;20141;-79
2021/10/06 00:15:54;;;;;;;18.13;8.05;;;11.80;99.90;;;10.39;100.00;101221.25;5025832;28;20457;-79
2021/10/06 00:18:22;;;;;;;19.45;8.45;;;11.80;99.90;;;10.43;100.00;101212.31;5039230;28;20082;-79
2021/10/06 00:20:48;;;;;;;14.98;7.80;;;11.80;99.90;;;10.42;100.00;101189.53;4978453;28;20134;-79
2021/10/06 00:23:14;;;;;;;18.58;8.48;;;11.80;99.90;;;10.38;100.00;101177.41;4995823;28;20092;-79
2021/10/06 00:25:41;;;;;;;18.40;8.98;;;;;;;10.36;100.00;101169.56;4989265;28;20509;-78
2021/10/06 00:28:07;;;;;;;17.27;8.63;;;11.80;99.90;;;10.37;100.00;101187.09;5023361;28;20084;-78
2021/10/06 00:30:33;;;;;;;18.05;9.15;;;11.80;99.90;;;10.39;100.00;101192.31;4984663;28;20029;-79
2021/10/06 00:32:59;;;;;;;19.50;9.82;;;11.80;99.90;;;10.42;100.00;101189.53;4978494;28;20479;-78
2021/10/06 00:35:25;;;;;;;28.60;9.73;;;11.80;99.90;;;10.41;100.00;101175.53;5006784;28;20055;-79
2021/10/06 00:37:51;;;;;;;20.17;9.13;;;11.80;99.90;;;10.39;100.00;101174.72;5020516;28;20071;-79
2021/10/06 00:40:19;;;;;;;20.52;9.57;;;11.80;99.90;;;10.38;100.00;101173.00;5010700;28;20433;-79
2021/10/06 00:42:45;;;;;;;21.85;10.02;;;11.80;99.90;;;10.37;100.00;101173.06;5014042;28;20066;-79
2021/10/06 00:45:11;;;;;;;21.58;10.30;;;11.80;99.90;;;10.36;100.00;101171.34;5004364;28;20059;-79
2021/10/06 00:47:38;;;;;;;21.92;10.70;;;11.80;99.90;;;10.34;100.00;101181.91;5009016;28;20439;-79
2021/10/06 00:50:06;;;;;;;25.92;11.23;;;11.80;99.90;;;10.35;100.00;101183.66;5033876;28;20482;-79
2021/10/06 00:52:32;;;;;;;29.35;11.32;;;11.80;99.90;;;10.41;100.00;101190.44;5023139;28;20049;-79
2021/10/06 00:54:58;;;;;;;20.27;10.77;;;11.80;99.90;;;10.37;100.00;101205.50;4984870;28;20063;-79
2021/10/06 00:57:24;;;;;;;21.70;10.60;;;11.90;99.90;;;10.36;100.00;101208.19;4998876;28;20522;-79
2021/10/06 00:59:50;;;;;;;25.42;10.90;;;11.80;99.90;;;10.38;100.00;101219.53;5017461;28;20071;-78
2021/10/06 01:02:16;;;;;;;25.80;9.93;;;11.80;99.90;;;10.36;100.00;101219.56;5029633;28;20069;-79
2021/10/06 01:04:42;;;;;;;22.20;10.77;;;11.80;99.90;;;10.35;100.00;101228.41;4998226;28;20108;-78
2021/10/06 01:07:08;;;;;;;21.52;11.30;;;11.80;99.90;;;10.33;100.00;101229.38;5007270;28;20059;-78
2021/10/06 01:09:38;;;;;;;22.98;11.13;;;11.80;99.90;;;10.32;100.00;101236.41;4983703;28;20028;-80
2021/10/06 01:12:04;;;;;;;21.67;10.82;;;11.80;99.90;;;10.34;100.00;101233.72;5008642;28;20501;-78
2021/10/06 01:14:31;;;;;;;19.40;10.05;;;11.80;99.90;;;10.33;100.00;101240.75;5013632;28;20142;-78
2021/10/06 01:16:57;;;;;;;22.75;10.63;;;11.80;99.90;;;10.33;100.00;101238.13;5021670;28;20033;-79
2021/10/06 01:19:27;;;;;;;25.33;11.88;;;11.80;99.90;;;10.33;100.00;101251.28;5011113;28;20115;-78
2021/10/06 01:21:56;;;;;;;25.75;11.98;;;11.80;99.90;;;10.36;100.00;101247.69;5055452;28;20420;-79
2021/10/06 01:24:25;;;;;;;27.67;11.70;;;11.80;99.90;;;10.34;100.00;101247.72;5025158;28;20128;-79
2021/10/06 01:26:53;;;;;;;23.00;11.70;;;11.80;99.90;;;10.34;100.00;101231.09;5000468;28;20360;-78
2021/10/06 01:29:22;;;;;;;28.25;12.10;;;11.80;99.90;;;10.34;100.00;101233.72;5014018;28;20062;-80
2021/10/06 01:31:50;;;;;;;26.10;11.68;;;11.80;99.90;;;10.35;100.00;101238.94;5000845;28;20064;-79
2021/10/06 01:34:19;;;;;;;27.17;11.68;;;11.80;99.90;;;10.35;100.00;101252.09;5000312;28;20059;-78
2021/10/06 01:36:52;;;;;;;22.52;10.75;;;11.80;99.90;;;10.34;100.00;101242.47;5001219;28;20055;-79
2021/10/06 01:39:20;;;;;;;20.15;9.85;;;11.80;99.90;;;10.39;100.00;101264.22;4994515;28;20113;-78
2021/10/06 01:41:48;;;;;;;25.15;10.95;;;11.80;99.90;;;10.36;100.00;101247.69;5002357;28;20056;-78
2021/10/06 01:44:17;;;;;;;25.48;11.63;;;11.80;99.90;;;10.34;100.00;101234.56;5031719;28;20175;-79
2021/10/06 01:46:45;;;;;;;30.13;12.55;;;11.80;99.90;;;10.36;100.00;101234.53;5014571;28;20063;-79
2021/10/06 01:49:12;;;;;;;25.90;11.77;;;11.80;99.90;;;10.33;100.00;101232.88;5011279;28;20067;-78
2021/10/06 01:51:39;;;;;;;30.35;12.95;;;11.80;99.90;;;10.35;100.00;101220.50;5015011;28;20108;-78
2021/10/06 01:54:05;;;;;;;29.55;12.85;;;11.80;99.90;;;10.34;100.00;101224.03;4996485;28;20520;-78
2021/10/06 01:56:34;;;;;;;31.58;12.88;;;11.80;99.90;;;10.36;100.00;101224.00;5011323;28;20082;-79
2021/10/06 01:59:03;;;;;;;24.35;12.75;;;11.80;99.90;;;10.31;100.00;101232.06;5029559;28;20105;-79
2021/10/06 02:01:30;;;;;;;23.88;11.82;;;11.80;99.90;;;10.31;100.00;101226.81;5005575;28;20466;-78
2021/10/06 02:03:56;;;;;;;25.90;12.95;;;11.80;99.90;;;10.35;100.00;101236.31;5013541;28;20033;-78
2021/10/06 02:06:22;;;;;;;33.88;14.18;;;11.80;99.90;;;10.32;100.00;101230.28;5015590;28;20125;-80
2021/10/06 02:08:51;;;;;;;30.52;13.98;;;11.80;99.90;;;10.31;100.00;101245.22;4982228;28;22270;-78
2021/10/06 02:11:17;;;;;;;31.17;12.30;;;11.80;99.90;;;10.30;100.00;101238.22;5006414;28;20055;-79
2021/10/06 02:13:43;;;;;;;27.90;12.65;;;11.70;99.90;;;10.29;100.00;101241.78;5018081;28;20141;-78
2021/10/06 02:16:09;;;;;;;26.85;12.02;;;11.70;99.90;;;10.31;100.00;101249.63;4980949;28;20207;-78
2021/10/06 02:18:35;;;;;;;28.90;13.60;;;11.70;99.90;;;10.33;100.00;101253.06;5014903;28;20048;-78
2021/10/06 02:21:05;;;;;;;30.38;13.20;;;11.80;99.90;;;10.33;100.00;101261.81;5027955;28;20059;-78
2021/10/06 02:23:31;;;;;;;34.20;13.20;;;11.70;99.90;;;10.32;100.00;101267.97;5007872;28;20081;-78
2021/10/06 02:25:57;;;;;;;31.20;14.23;;;11.80;99.90;;;10.33;100.00;101256.56;4994572;28;20074;-78
2021/10/06 02:28:23;;;;;;;25.95;13.52;;;11.70;99.90;;;10.32;100.00;101256.59;5011086;28;20055;-78
2021/10/06 02:30:49;;;;;;;30.38;13.80;;;11.70;99.90;;;10.30;100.00;101245.28;5041960;28;20069;-78
2021/10/06 02:33:15;;;;;;;31.85;13.60;;;11.70;99.90;;;10.31;100.00;101252.28;5024028;28;20074;-78
2021/10/06 02:35:41;;;;;;;28.25;13.50;;;11.70;99.90;;;10.26;100.00;101237.47;5025824;28;20059;-78
2021/10/06 02:38:07;;;;;;;27.77;13.07;;;11.70;99.90;;;10.32;100.00;101235.53;5021501;28;20101;-79
2021/10/06 02:40:34;;;;;;;28.95;12.88;;;11.70;99.90;;;10.22;100.00;101208.69;5013273;28;20055;-78
2021/10/06 02:43:00;;;;;;;30.48;13.75;;;11.60;99.90;;;10.24;100.00;101217.41;5024914;28;20078;-78
2021/10/06 02:45:26;;;;;;;29.90;13.45;;;11.50;99.90;;;10.09;100.00;101196.91;4987829;28;20071;-78
2021/10/06 02:47:52;;;;;;;36.90;14.13;;;11.50;99.90;;;9.98;100.00;101182.38;5003273;28;20066;-78
2021/10/06 02:50:25;;;;;;;26.17;13.00;;;11.40;99.90;;;9.97;100.00;101193.78;5016458;28;20063;-78
2021/10/06 02:52:53;;;;;;;25.08;12.70;;;11.40;99.90;;;9.97;100.00;101214.84;5041537;28;20444;-78
2021/10/06 02:55:20;;;;;;;28.67;12.77;;;11.30;99.90;;;9.86;100.00;101211.75;5015913;28;20059;-78
2021/10/06 02:57:46;;;;;;;29.27;13.80;;;11.20;99.90;;;9.78;100.00;101224.31;4990508;28;20646;-78
2021/10/06 03:00:13;;;;;;;31.33;13.77;;;11.20;99.90;;;9.71;100.00;101225.44;4969922;28;20448;-78
2021/10/06 03:02:42;;;;;;;32.72;14.75;;;11.10;99.90;;;9.64;100.00;101236.16;5012463;28;20110;-78
2021/10/06 03:05:10;;;;;;;34.33;14.35;;;11.10;99.90;;;9.60;100.00;101247.69;5015488;28;20063;-78
2021/10/06 03:07:37;;;;;;;35.80;14.68;;;11.10;99.90;;;9.70;100.00;101273.66;5033173;28;20067;-78
2021/10/06 03:10:06;;;;;;;32.40;14.38;;;11.10;99.90;;;9.68;100.00;101278.16;5026392;28;20025;-78
2021/10/06 03:12:33;;;;;;;36.22;15.77;;;11.10;99.90;;;9.71;100.00;101285.94;5018331;28;20112;-79
2021/10/06 03:14:59;;;;;;;34.88;15.82;;;11.20;99.90;;;9.74;100.00;101304.22;5021672;28;20059;-78
2021/10/06 03:17:25;;;;;;;35.83;15.70;;;11.20;99.90;;;9.79;100.00;101325.97;5032290;28;20059;-78
2021/10/06 03:19:51;;;;;;;41.28;16.67;;;11.20;99.90;;;9.81;100.00;101337.31;5029280;28;20087;-78
2021/10/06 03:22:17;;;;;;;39.42;16.25;;;11.20;99.90;;;9.81;100.00;101348.69;5005787;28;20067;-78
2021/10/06 03:24:43;;;;;;;47.08;17.95;;;11.20;99.90;;;9.82;100.00;101353.00;5024093;28;20067;-78
2021/10/06 03:27:09;;;;;;;43.63;18.05;;;11.30;99.90;;;9.85;100.00;101362.59;5014921;28;20058;-78
2021/10/06 03:29:35;;;;;;;37.78;16.15;;;11.30;99.90;;;9.86;100.00;101353.78;5015470;28;20185;-78
2021/10/06 03:32:01;;;;;;;41.28;16.60;;;11.30;99.90;;;9.88;100.00;101372.16;5026585;28;20064;-78
2021/10/06 03:34:27;;;;;;;39.55;17.42;;;11.30;99.90;;;9.86;100.00;101352.00;5000013;28;20060;-78
2021/10/06 03:36:53;;;;;;;44.08;17.40;;;11.30;99.90;;;9.85;100.00;101342.41;5003969;28;20153;-78
2021/10/06 03:39:19;;;;;;;43.22;18.10;;;11.30;99.90;;;9.82;100.00;101346.91;5020342;28;20086;-78
2021/10/06 03:41:45;;;;;;;41.97;17.75;;;11.20;99.90;;;9.77;100.00;101338.31;5029124;28;20025;-78
2021/10/06 03:44:11;;;;;;;41.22;16.75;;;11.20;99.90;;;9.73;100.00;101347.22;5017276;28;20066;-78
2021/10/06 03:46:37;;;;;;;43.47;16.50;;;11.20;99.90;;;9.65;100.00;101337.81;5028737;28;20529;-78
2021/10/06 03:49:03;;;;;;;40.97;17.58;;;11.10;99.90;;;9.59;100.00;101331.88;4999752;28;20036;-78
2021/10/06 03:51:29;;;;;;;37.60;16.13;;;11.00;99.90;;;9.55;100.00;101332.91;5020177;28;20041;-78
2021/10/06 03:53:55;;;;;;;37.95;15.98;;;11.00;99.90;;;9.51;100.00;101331.28;5027671;28;20044;-78
2021/10/06 03:56:21;;;;;;;33.13;16.27;;;11.00;99.90;;;9.48;100.00;101326.13;5014358;28;20063;-78
2021/10/06 03:58:47;;;;;;;41.72;17.38;;;11.00;99.90;;;9.48;100.00;101328.75;5004919;28;20434;-78
2021/10/06 04:01:13;;;;;;;43.47;18.63;;;11.00;99.90;;;9.51;100.00;101342.66;5024026;28;20059;-78
2021/10/06 04:03:39;;;;;;;32.50;15.60;;;11.20;99.90;;;9.62;100.00;101366.81;5027276;28;20086;-78
2021/10/06 04:06:05;;;;;;;37.90;17.00;;;11.10;99.90;;;9.67;100.00;101376.34;5023771;28;20051;-79
2021/10/06 04:08:34;;;;;;;38.78;16.70;;;11.20;99.90;;;9.79;100.00;101403.09;5022852;28;20575;-78
2021/10/06 04:11:00;;;;;;;37.78;15.95;;;11.20;99.90;;;9.82;100.00;101404.78;5021315;28;20052;-78
2021/10/06 04:13:26;;;;;;;45.65;17.63;;;11.30;99.90;;;9.86;100.00;101401.13;4997080;28;20073;-78
2021/10/06 04:15:52;;;;;;;37.30;16.73;;;11.30;99.90;;;9.86;100.00;101404.63;4960429;28;20162;-78
2021/10/06 04:18:18;;;;;;;38.20;17.00;;;11.30;99.90;;;9.89;100.00;101411.53;5016359;28;20116;-78
2021/10/06 04:20:44;;;;;;;44.53;17.70;;;11.40;99.90;;;9.93;100.00;101420.19;4977299;28;20600;-78
2021/10/06 04:23:12;;;;;;;42.50;17.90;;;11.40;99.90;;;9.92;100.00;101421.97;5006862;28;20113;-79
2021/10/06 04:25:38;;;;;;;37.13;16.73;;;11.40;99.90;;;9.94;100.00;101427.19;5025328;28;20071;-78
2021/10/06 04:28:05;;;;;;;43.65;17.20;;;11.40;99.90;;;9.93;100.00;101434.22;5020379;28;20100;-78
2021/10/06 04:30:31;;;;;;;35.75;16.35;;;11.40;99.90;;;9.96;100.00;101431.50;5018462;28;20048;-78
2021/10/06 04:32:58;;;;;;;37.78;15.57;;;11.40;99.90;;;9.98;100.00;101440.19;5035351;28;20462;-78
2021/10/06 04:35:24;;;;;;;42.70;16.65;;;11.40;99.90;;;9.98;100.00;101413.88;4991631;28;20069;-78
2021/10/06 04:37:50;;;;;;;35.55;16.90;;;11.40;99.90;;;10.00;100.00;101395.41;5016166;28;20033;-79
2021/10/06 04:40:18;;;;;;;38.97;15.77;;;11.40;99.90;;;10.01;100.00;101376.94;4952682;28;20059;-78
2021/10/06 04:42:46;;;;;;;34.00;15.55;;;11.40;99.90;;;10.03;100.00;101374.25;4982286;28;20051;-78
2021/10/06 04:45:14;;;;;;;38.72;15.40;;;11.40;99.90;;;10.03;100.00;101361.09;5002437;28;20142;-79
2021/10/06 04:47:40;;;;;;;34.47;15.30;;;11.50;99.90;;;10.06;100.00;101363.63;4986851;28;21277;-78
2021/10/06 04:50:08;;;;;;;35.65;15.63;;;11.50;99.90;;;10.06;100.00;101356.63;4995433;28;20089;-78
2021/10/06 04:52:35;;;;;;;34.40;15.90;;;11.50;99.90;;;10.09;100.00;101349.53;5001090;28;20021;-78
2021/10/06 04:55:01;;;;;;;34.90;14.95;;;11.50;99.90;;;10.11;100.00;101353.81;5030178;28;20043;-78
2021/10/06 04:57:27;;;;;;;34.42;15.18;;;11.50;99.90;;;10.11;100.00;101345.03;5021275;28;20055;-78
2021/10/06 04:59:53;;;;;;;32.58;14.43;;;11.50;99.90;;;10.12;100.00;101347.63;5023897;28;20137;-78
2021/10/06 05:02:19;;;;;;;34.65;14.73;;;11.50;99.90;;;10.13;100.00;101351.09;5030116;28;20086;-78
2021/10/06 05:04:48;;;;;;;27.00;13.68;;;11.50;99.90;;;10.13;100.00;101348.47;5012991;28;20055;-78
2021/10/06 05:07:14;;;;;;;27.20;12.70;;;11.60;99.90;;;10.14;100.00;101347.59;5028989;28;20063;-78
2021/10/06 05:09:40;;;;;;;32.08;14.25;;;11.60;99.90;;;10.13;100.00;101344.09;5029107;28;20185;-78
2021/10/06 05:12:06;;;;;;;28.40;13.00;;;11.60;99.90;;;10.15;100.00;101344.03;5014227;28;20071;-78
2021/10/06 05:14:32;;;;;;;23.08;11.50;;;11.60;99.90;;;10.15;100.00;101339.66;5030887;28;20380;-78
2021/10/06 05:16:58;;;;;;;24.33;11.77;;;11.60;99.90;;;10.15;100.00;101355.44;4984497;28;20033;-78
2021/10/06 05:19:24;;;;;;;27.40;12.20;;;11.60;99.90;;;10.15;100.00;101358.06;4979879;28;20080;-78
2021/10/06 05:21:53;;;;;;;24.30;12.40;;;11.60;99.90;;;10.15;100.00;101365.06;4999692;28;20077;-78
2021/10/06 05:24:19;;;;;;;24.10;11.02;;;11.60;99.90;;;10.15;100.00;101365.97;4997455;28;22355;-78
2021/10/06 05:26:45;;;;;;;26.02;11.60;;;11.70;99.90;;;10.16;100.00;101375.56;5019096;28;20066;-78
2021/10/06 05:29:11;;;;;;;23.95;11.60;;;11.60;99.90;;;10.18;100.00;101391.31;5001475;28;20054;-78
2021/10/06 05:31:37;;;;;;;20.20;10.55;;;11.70;99.90;;;10.21;100.00;101401.72;5036132;28;20013;-78
2021/10/06 05:34:03;;;;;;;21.45;10.90;;;11.60;99.90;;;10.19;100.00;101393.00;5035822;28;20055;-78
2021/10/06 05:36:29;;;;;;;23.65;10.80;;;11.60;99.90;;;10.19;100.00;101390.38;5006543;28;20566;-78
2021/10/06 05:38:55;;;;;;;21.33;10.23;;;11.60;99.90;;;10.22;100.00;101395.56;5011935;28;20078;-78
2021/10/06 05:41:23;;;;;;;19.60;10.55;;;11.60;99.90;;;10.30;100.00;101405.84;4996970;28;20567;-78
2021/10/06 05:43:49;;;;;;;21.48;10.85;;;11.60;99.90;;;10.26;100.00;101397.16;5007684;28;20504;-78
2021/10/06 05:46:15;;;;;;;24.15;11.32;;;11.70;99.90;;;10.29;100.00;101389.19;5016580;28;20021;-78
2021/10/06 05:48:41;;;;;;;25.05;10.88;;;11.70;99.90;;;10.29;100.00;101383.91;5039260;28;20446;-78
2021/10/06 05:51:07;;;;;;;19.15;10.95;;;11.70;99.90;;;10.31;100.00;101397.03;5020800;28;20262;-78
2021/10/06 05:53:33;;;;;;;20.10;10.45;;;11.70;99.90;;;10.31;100.00;101391.78;5003258;28;20089;-79
2021/10/06 05:55:59;;;;;;;21.52;10.20;;;11.70;99.90;;;10.31;100.00;101413.69;5039166;28;20147;-79
2021/10/06 05:58:27;;;;;;;21.05;10.55;;;11.70;99.90;;;10.28;100.00;101526.97;4993133;28;20174;-79
2021/10/06 06:00:53;;;;;;;21.48;10.25;;;11.70;99.90;;;10.26;100.00;101861.28;5018487;28;20121;-79
2021/10/06 06:03:19;;;;;;;18.92;9.80;;;11.60;99.90;;;10.28;100.00;101724.38;5037723;28;20021;-79
2021/10/06 06:05:45;;;;;;;20.10;9.43;;;11.70;99.90;;;10.27;100.00;101660.31;5038488;28;20042;-79
2021/10/06 06:08:11;;;;;;;20.35;10.20;;;11.70;99.90;;;10.27;100.00;101633.13;5021389;28;20137;-79
2021/10/06 06:10:38;;;;;;;17.25;9.80;;;11.70;99.90;;;10.25;100.00;101613.91;5024670;28;20065;-80
2021/10/06 06:13:06;;;;;;;22.77;10.43;;;11.60;99.90;;;10.27;100.00;101599.78;4968233;28;20051;-79
2021/10/06 06:15:32;;;;;;;26.70;10.07;;;11.60;99.90;;;10.27;100.00;101588.41;4994941;28;20056;-80
2021/10/06 06:17:59;;;;;;;19.73;9.88;;;11.70;99.90;;;10.26;100.00;101589.31;5016257;28;20030;-79
2021/10/06 06:20:26;;;;;;;21.45;10.43;;;11.60;99.90;;;10.26;100.00;101568.25;5000159;28;20070;-79
2021/10/06 06:22:54;;;;;;;20.27;9.80;;;11.70;99.90;;;10.26;100.00;101555.94;5031395;28;20518;-79
2021/10/06 06:25:24;;;;;;;17.25;9.48;;;;;;;10.26;100.00;101571.75;4985903;28;20059;-80
2021/10/06 06:27:51;;;;;;;17.30;9.27;;;11.70;99.90;;;10.31;100.00;101583.94;5029737;28;20147;-79
2021/10/06 06:30:17;;;;;;;20.35;9.60;;;11.70;99.90;;;10.34;100.00;101584.69;5029925;28;20473;-80
2021/10/06 06:32:43;;;;;;;17.85;9.40;;;11.80;99.90;;;10.39;100.00;101574.88;5019291;28;20069;-79
2021/10/06 06:35:10;;;;;;;16.98;9.20;;;11.80;99.90;;;10.48;100.00;101583.41;5003403;28;20530;-80
2021/10/06 06:37:40;;;;;;;20.08;9.55;;;;;;;10.52;100.00;101580.63;4972027;28;20973;-80
2021/10/06 06:40:08;;;;;;;20.13;9.65;;;11.90;99.90;;;10.59;100.00;101582.13;5001574;28;20076;-80
2021/10/06 06:42:34;;;;;;;17.95;9.68;;;11.90;99.90;;;10.64;100.00;101579.34;5004899;28;20029;-79
2021/10/06 06:45:02;;;;;;;17.88;9.30;;;12.00;99.90;;;10.66;100.00;101572.25;4995448;28;20068;-80
2021/10/06 06:47:30;;;;;;;19.83;9.35;;;12.00;99.90;;;10.71;100.00;101557.13;5015838;28;20025;-80
2021/10/06 06:49:56;;;;;;;15.98;8.80;;;12.00;99.90;;;10.67;100.00;101540.59;5020349;28;20112;-79
2021/10/06 06:52:22;;;;;;;16.65;8.52;;;12.00;99.90;;;10.62;100.00;101536.38;4987034;28;20435;-80
2021/10/06 06:54:48;;;;;;;24.27;9.18;;;11.90;99.90;;;10.57;100.00;101538.31;5003460;28;20064;-80
2021/10/06 06:57:15;;;;;;;16.50;8.48;;;11.80;99.90;;;10.49;100.00;101533.28;5000163;28;20062;-80
2021/10/06 06:59:41;;;;;;;16.58;7.90;;;11.80;99.90;;;10.48;100.00;101538.63;4958172;28;20103;-79
2021/10/06 07:02:08;;;;;;;22.17;9.52;;;11.80;99.90;;;10.54;100.00;101554.22;5000419;28;20031;-80
2021/10/06 07:04:35;;;;;;;20.55;9.00;;;11.90;99.90;;;10.66;100.00;101572.25;5015223;28;20507;-80
2021/10/06 07:07:03;;;;;;;19.50;9.43;;;12.10;99.90;;;11.39;100.00;101626.81;5006204;28;20075;-80
2021/10/06 07:09:30;;;;;;;19.60;9.82;;;12.60;99.90;;;11.94;100.00;101629.22;5032489;28;20064;-80
2021/10/06 07:11:56;;;;;;;14.23;7.60;;;12.70;99.90;;;11.64;100.00;101584.59;4995774;28;20034;-79
2021/10/06 07:14:25;;;;;;;17.33;7.68;;;12.50;99.90;;;11.20;100.00;101546.66;4998177;28;20415;-80
2021/10/06 07:16:51;;;;;;;11.73;7.20;;;12.20;99.90;;;10.92;100.00;101542.38;4999400;28;20601;-79
2021/10/06 07:19:17;;;;;;;12.18;7.80;;;12.30;99.90;;;11.59;100.00;101634.00;5012088;28;20113;-79
2021/10/06 07:21:44;;;;;;;14.25;8.05;;;13.00;99.90;;;13.14;100.00;101741.59;5024171;28;20561;-80
2021/10/06 07:24:15;;;;;;;11.80;7.47;;;14.40;99.90;;;15.36;95.58;102057.97;5030593;28;20044;-80
2021/10/06 07:26:45;;;;;;;11.93;5.68;;;15.90;99.90;;;16.77;84.22;102515.75;5013965;28;20029;-81
2021/10/06 07:29:12;;;;;;;6.97;3.92;;;16.70;99.90;;;17.22;77.57;102477.38;4974008;28;20037;-80
2021/10/06 07:31:38;;;;;;;9.50;3.67;;;17.20;99.90;;;17.87;74.12;102357.94;4995712;28;20076;-80
2021/10/06 07:34:04;;;;;;;6.68;4.00;;;17.50;99.90;;;18.33;72.16;102402.63;5013334;28;20033;-80
2021/10/06 07:36:34;;;;;;;8.63;3.53;;;17.80;99.90;;;18.20;71.82;102424.59;5004732;28;20032;-80
2021/10/06 07:39:02;;;;;;;10.23;3.78;;;17.70;99.90;;;18.37;70.84;102487.72;4996625;28;20065;-80
2021/10/06 07:41:28;;;;;;;5.88;3.70;;;18.10;99.90;;;18.95;68.56;102425.09;5003541;28;20022;-80
2021/10/06 07:43:54;;;;;;;6.00;3.75;;;18.60;99.90;;;19.64;67.56;102143.31;5025028;28;20401;-81
2021/10/06 07:46:20;;;;;;;6.25;3.22;;;19.10;99.90;;;20.13;64.37;102382.72;4995735;28;20518;-80
2021/10/06 07:48:46;;;;;;;6.25;3.05;;;19.40;99.90;;;20.47;63.31;102400.22;5003040;28;20045;-80
2021/10/06 07:51:13;;;;;;;4.93;2.90;;;19.60;99.90;;;20.24;62.54;102029.88;5004773;28;20532;-81
2021/10/06 07:53:42;;;;;;;5.57;3.20;;;18.90;99.90;;;18.16;67.76;101745.97;4969384;28;20033;-80
2021/10/06 07:56:08;;;;;;;5.55;3.15;;;17.60;99.90;;;16.95;73.05;101668.03;5022989;28;20120;-80
2021/10/06 07:58:34;;;;;;;7.45;3.20;;;16.80;99.90;;;16.34;77.30;101677.69;5016545;28;20040;-80
2021/10/06 08:01:10;;;;;;;4.88;2.90;;;17.00;99.90;;;17.18;74.45;101773.16;5008274;28;20022;-80
2021/10/06 08:03:36;;;;;;;6.45;3.03;;;17.50;99.90;;;18.58;70.19;101808.22;5016340;28;20025;-80
2021/10/06 08:06:02;;;;;;;4.63;2.70;;;17.90;99.90;;;18.43;67.05;101753.19;4984558;28;20025;-79
2021/10/06 08:08:28;;;;;;;4.97;2.58;;;17.90;99.90;;;18.18;68.42;101759.19;5019166;28;20025;-80
2021/10/06 08:10:59;;;;;;;4.20;2.35;;;17.80;99.90;;;17.80;69.83;101744.59;5006023;28;20021;-81
2021/10/06 08:13:25;;;;;;;7.60;2.95;;;17.60;99.90;;;18.49;68.47;101808.81;5008043;28;20116;-80
2021/10/06 08:15:53;;;;;;;6.10;2.95;;;18.40;99.90;;;19.52;63.89;101865.38;5018112;28;20079;-80
2021/10/06 08:18:20;;;;;;;4.85;2.28;;;19.00;99.90;;;20.53;60.76;101895.94;5004568;28;20062;-79
2021/10/06 08:21:04;;;;;;;3.45;2.05;;;19.60;99.90;;;20.92;57.84;101864.66;4988101;28;20025;-79
2021/10/06 08:23:31;;;;;;;9.55;2.10;;;19.90;99.90;;;21.38;56.78;101879.16;5001587;28;20025;-79
2021/10/06 08:25:58;;;;;;;6.15;2.05;;;20.30;99.90;;;21.69;56.03;101915.31;5027508;28;20021;-80
2021/10/06 08:28:25;;;;;;;4.68;1.77;;;20.30;99.90;;;21.48;55.09;102041.00;5033746;28;20047;-80
2021/10/06 08:30:51;;;;;;;3.88;1.75;;;20.60;99.90;;;21.90;54.69;101936.97;5028956;28;20029;-80
2021/10/06 08:33:17;;;;;;;3.50;1.73;;;20.30;99.90;;;21.57;54.83;101897.44;5033068;28;20035;-80
2021/10/06 08:35:44;;;;;;;6.70;1.70;;;;;;;21.57;56.23;101873.34;5027597;28;20029;-80
2021/10/06 08:38:10;;;;;;;5.57;1.85;;;20.00;99.90;;;21.27;55.63;101837.97;5048562;28;20075;-80
2021/10/06 08:40:38;;;;;;;6.28;2.20;;;19.90;99.90;;;21.46;55.66;101858.91;4991189;28;20462;-79
2021/10/06 08:43:09;;;;;;;3.55;1.80;;;19.80;99.90;;;20.78;56.56;101768.47;5011846;28;20075;-80
2021/10/06 08:45:40;;;;;;;5.45;1.70;;;19.90;99.90;;;21.38;54.54;101829.16;4988710;28;20147;-80
2021/10/06 08:48:09;;;;;;;5.70;1.80;;;19.90;99.90;;;21.22;55.22;101791.06;5013518;28;20036;-80
2021/10/06 08:50:39;;;;;;;4.28;2.10;;;19.80;99.90;;;21.26;54.39;101800.59;4994485;28;20113;-79
2021/10/06 08:53:07;;;;;;;6.00;1.65;;;19.30;99.90;;;20.30;56.92;101715.66;5026111;28;20032;-80
2021/10/06 08:55:35;;;;;;;6.03;1.65;;;19.20;99.90;;;19.89;58.04;101668.69;5009856;28;20034;-80
2021/10/06 08:58:06;;;;;;;6.70;1.88;;;19.40;99.90;;;19.95;57.94;101672.75;4984772;28;20022;-79
2021/10/06 09:01:00;;;;;;;7.22;1.65;;;18.50;99.90;;;17.45;65.45;101491.13;4970655;28;20043;-79
2021/10/06 09:03:44;;;;;;;5.07;1.95;;;17.00;99.90;;;15.81;72.43;101432.75;4984816;28;20025;-80
2021/10/06 09:06:14;;;;;;;9.10;2.00;;;16.30;99.90;;;15.14;76.73;101424.91;4987621;28;20117;-79
2021/10/06 09:08:51;;;;;;;7.00;2.28;;;15.80;99.90;;;14.75;78.88;101425.25;5007758;28;20226;-79
2021/10/06 09:11:35;;;;;;;4.88;1.80;;;15.50;99.90;;;14.48;80.89;101419.59;4970658;28;20145;-79
2021/10/06 09:14:09;;;;;;;5.95;2.15;;;15.40;99.90;;;14.78;81.06;101464.88;4995130;28;20484;-79
2021/10/06 09:16:49;;;;;;;8.60;1.98;;;16.30;99.90;;;16.85;72.08;101595.91;4998626;28;20504;-79
2021/10/06 09:19:49;;;;;;;2.65;1.60;;;16.90;99.90;;;15.90;72.84;101479.16;5002209;28;20479;-79
2021/10/06 09:22:27;;;;;;;6.20;1.58;;;16.20;99.90;;;14.98;76.86;101418.72;4989958;28;20053;-79
2021/10/06 09:25:27;;;;;;;4.28;1.73;;;16.00;99.90;;;15.61;77.29;101500.19;4984368;28;20494;-79
2021/10/06 09:28:26;;;;;;;8.25;1.77;;;16.30;99.90;;;15.05;77.30;101422.75;4983341;28;20516;-79
2021/10/06 09:31:36;;;;;;;9.35;1.98;;;15.60;99.90;;;14.02;81.22;101367.19;4967001;28;20067;-79
2021/10/06 09:34:41;;;;;;;4.25;1.83;;;14.80;99.90;;;13.38;83.36;101336.81;4984382;28;20040;-79
2021/10/06 09:37:38;;;;;;;5.05;2.00;;;14.30;99.90;;;13.14;85.88;101349.41;4992115;28;20365;-79
2021/10/06 09:40:54;;;;;;;6.55;2.40;;;14.50;99.90;;;13.97;85.25;101439.81;4981521;28;20045;-79
2021/10/06 09:43:32;;;;;;;3.17;1.77;;;15.30;99.90;;;14.55;82.15;101448.34;4972779;28;20498;-79
2021/10/06 09:45:59;;;;;;;4.30;2.22;;;15.60;99.90;;;14.69;81.20;101450.31;4992723;28;20037;-79
2021/10/06 09:48:48;;;;;;;3.53;1.92;;;15.70;99.90;;;14.83;80.36;101449.56;4964232;28;20440;-79
2021/10/06 09:51:27;;;;;;;7.05;2.03;;;15.70;99.90;;;14.90;79.89;101450.97;4972349;28;20036;-78
2021/10/06 09:54:25;;;;;;;4.25;1.90;;;15.90;99.90;;;15.23;79.84;101475.75;4964683;28;20041;-80
2021/10/06 09:57:06;;;;;;;5.65;2.00;;;16.30;99.90;;;15.72;79.15;101518.19;4975712;28;20096;-79
2021/10/06 09:59:48;;;;;;;12.85;1.90;;;16.40;99.90;;;15.72;76.55;101499.63;4962606;28;20486;-79
2021/10/06 10:02:36;;;;;;;7.05;1.73;;;16.50;99.90;;;15.63;77.09;101439.03;4958690;28;20520;-80
2021/10/06 10:05:07;;;;;;;6.00;1.77;;;16.40;99.90;;;15.54;76.12;101441.25;4965966;28;20029;-79
2021/10/06 10:07:55;;;;;;;6.47;1.50;;;16.50;99.90;;;15.69;75.57;101458.13;4958805;28;20037;-79
2021/10/06 10:10:44;;;;;;;10.73;1.75;;;16.60;99.90;;;15.71;74.02;101444.78;4951466;28;20030;-78